sensor_id;sensor_type;location;lat;lon;timestamp;temperature;humidity
20349;DHT22;10332;50.208;18.988;2023-05-03T00:00:53;14.10;1.00
20349;DHT22;10332;50.208;18.988;2023-05-03T00:03:20;14.10;1.00
20349;DHT22;10332;50.208;18.988;2023-05-03T00:05:49;14.00;1.00
20349;DHT22;10332;50.208;18.988;2023-05-03T00:08:17;14.00;1.00
20349;DHT22;10332;50.208;18.988;2023-05-03T00:10:44;14.00;1.00
20349;DHT22;10332;50.208;18.988;2023-05-03T00:13:12;13.90;1.00
20349;DHT22;10332;50.208;18.988;2023-05-03T00:15:39;13.90;1.00
20349;DHT22;10332;50.208;18.988;2023-05-03T00:18:07;13.90;1.00
20349;DHT22;10332;50.208;18.988;2023-05-03T00:20:34;13.80;1.00
20349;DHT22;10332;50.208;18.988;2023-05-03T00:23:02;13.80;1.00
20349;DHT22;10332;50.208;18.988;2023-05-03T00:25:30;13.80;1.00
20349;DHT22;10332;50.208;18.988;2023-05-03T00:27:58;13.90;1.00
20349;DHT22;10332;50.208;18.988;2023-05-03T00:30:25;13.90;1.00
20349;DHT22;10332;50.208;18.988;2023-05-03T00:32:53;13.90;1.00
20349;DHT22;10332;50.208;18.988;2023-05-03T00:35:20;13.90;1.00
20349;DHT22;10332;50.208;18.988;2023-05-03T00:37:48;13.90;1.00
20349;DHT22;10332;50.208;18.988;2023-05-03T00:40:15;13.90;1.00
20349;DHT22;10332;50.208;18.988;2023-05-03T00:42:45;13.90;1.00
20349;DHT22;10332;50.208;18.988;2023-05-03T00:45:12;13.90;1.00
20349;DHT22;10332;50.208;18.988;2023-05-03T00:47:40;13.90;1.00
20349;DHT22;10332;50.208;18.988;2023-05-03T00:50:08;13.90;1.00
20349;DHT22;10332;50.208;18.988;2023-05-03T00:52:39;13.90;1.00
20349;DHT22;10332;50.208;18.988;2023-05-03T00:55:09;13.90;1.00
20349;DHT22;10332;50.208;18.988;2023-05-03T00:57:36;13.80;1.00
20349;DHT22;10332;50.208;18.988;2023-05-03T01:00:04;13.90;1.00
20349;DHT22;10332;50.208;18.988;2023-05-03T01:02:33;13.90;1.00
20349;DHT22;10332;50.208;18.988;2023-05-03T01:05:02;13.90;1.00
20349;DHT22;10332;50.208;18.988;2023-05-03T01:07:44;13.90;1.00
20349;DHT22;10332;50.208;18.988;2023-05-03T01:13:17;13.90;1.00
20349;DHT22;10332;50.208;18.988;2023-05-03T01:18:46;13.90;1.00
20349;DHT22;10332;50.208;18.988;2023-05-03T01:21:17;13.90;1.00
20349;DHT22;10332;50.208;18.988;2023-05-03T01:24:12;13.90;1.00
20349;DHT22;10332;50.208;18.988;2023-05-03T01:26:44;13.90;1.00
20349;DHT22;10332;50.208;18.988;2023-05-03T01:29:13;13.90;1.00
20349;DHT22;10332;50.208;18.988;2023-05-03T01:31:48;13.90;1.00
20349;DHT22;10332;50.208;18.988;2023-05-03T01:34:41;13.90;1.00
20349;DHT22;10332;50.208;18.988;2023-05-03T01:37:17;13.80;1.00
20349;DHT22;10332;50.208;18.988;2023-05-03T01:39:57;13.80;1.00
20349;DHT22;10332;50.208;18.988;2023-05-03T01:42:29;13.80;1.00
20349;DHT22;10332;50.208;18.988;2023-05-03T01:44:58;13.80;1.00
20349;DHT22;10332;50.208;18.988;2023-05-03T01:47:29;13.80;1.00
20349;DHT22;10332;50.208;18.988;2023-05-03T01:49:57;13.80;1.00
20349;DHT22;10332;50.208;18.988;2023-05-03T01:52:24;13.90;1.00
20349;DHT22;10332;50.208;18.988;2023-05-03T01:54:52;13.90;1.00
20349;DHT22;10332;50.208;18.988;2023-05-03T01:57:20;13.80;1.00
20349;DHT22;10332;50.208;18.988;2023-05-03T01:59:47;13.90;1.00
20349;DHT22;10332;50.208;18.988;2023-05-03T02:02:15;13.90;1.00
20349;DHT22;10332;50.208;18.988;2023-05-03T02:04:42;13.90;1.00
20349;DHT22;10332;50.208;18.988;2023-05-03T02:07:09;13.90;1.00
20349;DHT22;10332;50.208;18.988;2023-05-03T02:09:37;13.90;1.00
20349;DHT22;10332;50.208;18.988;2023-05-03T02:12:04;13.90;1.00
20349;DHT22;10332;50.208;18.988;2023-05-03T02:14:33;13.90;1.00
20349;DHT22;10332;50.208;18.988;2023-05-03T02:17:00;13.90;1.00
20349;DHT22;10332;50.208;18.988;2023-05-03T02:19:29;13.90;1.00
20349;DHT22;10332;50.208;18.988;2023-05-03T02:21:56;13.90;1.00
20349;DHT22;10332;50.208;18.988;2023-05-03T02:24:24;14.00;1.00
20349;DHT22;10332;50.208;18.988;2023-05-03T02:26:51;14.00;1.00
20349;DHT22;10332;50.208;18.988;2023-05-03T02:29:19;14.00;1.00
20349;DHT22;10332;50.208;18.988;2023-05-03T02:31:46;14.00;1.00
20349;DHT22;10332;50.208;18.988;2023-05-03T02:34:14;14.10;1.00
20349;DHT22;10332;50.208;18.988;2023-05-03T02:36:41;14.10;1.00
20349;DHT22;10332;50.208;18.988;2023-05-03T02:39:09;14.00;1.00
20349;DHT22;10332;50.208;18.988;2023-05-03T02:41:36;14.00;1.00
20349;DHT22;10332;50.208;18.988;2023-05-03T02:44:04;13.90;1.00
20349;DHT22;10332;50.208;18.988;2023-05-03T02:46:31;14.00;1.00
20349;DHT22;10332;50.208;18.988;2023-05-03T02:48:59;14.00;1.00
20349;DHT22;10332;50.208;18.988;2023-05-03T02:51:26;13.90;1.00
20349;DHT22;10332;50.208;18.988;2023-05-03T02:53:54;13.90;1.00
20349;DHT22;10332;50.208;18.988;2023-05-03T02:56:21;13.90;1.00
20349;DHT22;10332;50.208;18.988;2023-05-03T02:58:52;14.00;1.00
20349;DHT22;10332;50.208;18.988;2023-05-03T03:01:20;13.90;1.00
20349;DHT22;10332;50.208;18.988;2023-05-03T03:03:48;13.90;1.00
20349;DHT22;10332;50.208;18.988;2023-05-03T03:06:16;13.80;1.00
20349;DHT22;10332;50.208;18.988;2023-05-03T03:08:44;13.90;1.00
20349;DHT22;10332;50.208;18.988;2023-05-03T03:11:11;13.90;1.00
20349;DHT22;10332;50.208;18.988;2023-05-03T03:13:39;13.80;1.00
20349;DHT22;10332;50.208;18.988;2023-05-03T03:16:07;13.80;1.00
20349;DHT22;10332;50.208;18.988;2023-05-03T03:18:36;13.80;1.00
20349;DHT22;10332;50.208;18.988;2023-05-03T03:21:03;13.70;1.00
20349;DHT22;10332;50.208;18.988;2023-05-03T03:23:31;13.70;1.00
20349;DHT22;10332;50.208;18.988;2023-05-03T03:25:58;13.70;1.00
20349;DHT22;10332;50.208;18.988;2023-05-03T03:28:26;13.70;1.00
20349;DHT22;10332;50.208;18.988;2023-05-03T03:30:53;13.70;1.00
20349;DHT22;10332;50.208;18.988;2023-05-03T03:33:21;13.70;1.00
20349;DHT22;10332;50.208;18.988;2023-05-03T03:35:50;13.70;1.00
20349;DHT22;10332;50.208;18.988;2023-05-03T03:38:18;13.70;1.00
20349;DHT22;10332;50.208;18.988;2023-05-03T03:40:45;13.70;1.00
20349;DHT22;10332;50.208;18.988;2023-05-03T03:43:13;13.70;1.00
20349;DHT22;10332;50.208;18.988;2023-05-03T03:45:40;13.70;1.00
20349;DHT22;10332;50.208;18.988;2023-05-03T03:48:08;13.80;1.00
20349;DHT22;10332;50.208;18.988;2023-05-03T03:50:35;13.80;1.00
20349;DHT22;10332;50.208;18.988;2023-05-03T03:53:03;13.80;1.00
20349;DHT22;10332;50.208;18.988;2023-05-03T03:55:32;13.80;1.00
20349;DHT22;10332;50.208;18.988;2023-05-03T03:57:59;13.90;1.00
20349;DHT22;10332;50.208;18.988;2023-05-03T04:00:27;13.90;1.00
20349;DHT22;10332;50.208;18.988;2023-05-03T04:02:54;13.90;1.00
20349;DHT22;10332;50.208;18.988;2023-05-03T04:05:22;13.90;1.00
20349;DHT22;10332;50.208;18.988;2023-05-03T04:07:50;13.90;1.00
20349;DHT22;10332;50.208;18.988;2023-05-03T04:10:17;13.90;1.00
20349;DHT22;10332;50.208;18.988;2023-05-03T04:12:45;13.80;1.00
20349;DHT22;10332;50.208;18.988;2023-05-03T04:15:12;13.70;1.00
20349;DHT22;10332;50.208;18.988;2023-05-03T04:17:40;13.70;1.00
20349;DHT22;10332;50.208;18.988;2023-05-03T04:20:08;13.60;1.00
20349;DHT22;10332;50.208;18.988;2023-05-03T04:22:40;13.50;1.00
20349;DHT22;10332;50.208;18.988;2023-05-03T04:25:10;13.50;1.00
20349;DHT22;10332;50.208;18.988;2023-05-03T04:27:44;13.40;1.00
20349;DHT22;10332;50.208;18.988;2023-05-03T04:30:12;13.40;1.00
20349;DHT22;10332;50.208;18.988;2023-05-03T04:32:42;13.50;1.00
20349;DHT22;10332;50.208;18.988;2023-05-03T04:35:10;13.50;1.00
20349;DHT22;10332;50.208;18.988;2023-05-03T04:37:39;13.50;1.00
20349;DHT22;10332;50.208;18.988;2023-05-03T04:40:08;13.60;1.00
20349;DHT22;10332;50.208;18.988;2023-05-03T04:42:38;13.60;1.00
20349;DHT22;10332;50.208;18.988;2023-05-03T04:45:06;13.70;1.00
20349;DHT22;10332;50.208;18.988;2023-05-03T04:47:35;13.80;1.00
20349;DHT22;10332;50.208;18.988;2023-05-03T04:50:03;13.80;1.00
20349;DHT22;10332;50.208;18.988;2023-05-03T04:52:33;13.90;1.00
20349;DHT22;10332;50.208;18.988;2023-05-03T04:55:00;13.90;1.00
20349;DHT22;10332;50.208;18.988;2023-05-03T04:57:28;13.90;1.00
20349;DHT22;10332;50.208;18.988;2023-05-03T04:59:56;14.00;1.00
20349;DHT22;10332;50.208;18.988;2023-05-03T05:02:24;14.00;1.00
20349;DHT22;10332;50.208;18.988;2023-05-03T05:04:53;14.00;1.00
20349;DHT22;10332;50.208;18.988;2023-05-03T05:07:20;14.00;1.00
20349;DHT22;10332;50.208;18.988;2023-05-03T05:09:48;14.00;1.00
20349;DHT22;10332;50.208;18.988;2023-05-03T05:12:15;14.10;1.00
20349;DHT22;10332;50.208;18.988;2023-05-03T05:14:42;14.10;1.00
20349;DHT22;10332;50.208;18.988;2023-05-03T05:17:10;14.10;1.00
20349;DHT22;10332;50.208;18.988;2023-05-03T05:19:38;14.10;1.00
20349;DHT22;10332;50.208;18.988;2023-05-03T05:22:05;14.10;1.00
20349;DHT22;10332;50.208;18.988;2023-05-03T05:24:32;14.10;1.00
20349;DHT22;10332;50.208;18.988;2023-05-03T05:27:00;14.10;1.00
20349;DHT22;10332;50.208;18.988;2023-05-03T05:29:27;14.10;1.00
20349;DHT22;10332;50.208;18.988;2023-05-03T05:31:55;14.00;1.00
20349;DHT22;10332;50.208;18.988;2023-05-03T05:34:22;14.00;1.00
20349;DHT22;10332;50.208;18.988;2023-05-03T05:36:50;14.10;1.00
20349;DHT22;10332;50.208;18.988;2023-05-03T05:39:18;14.10;1.00
20349;DHT22;10332;50.208;18.988;2023-05-03T05:41:45;14.10;1.00
20349;DHT22;10332;50.208;18.988;2023-05-03T05:44:13;14.10;1.00
20349;DHT22;10332;50.208;18.988;2023-05-03T05:46:40;14.20;99.90
20349;DHT22;10332;50.208;18.988;2023-05-03T05:49:08;14.20;99.90
20349;DHT22;10332;50.208;18.988;2023-05-03T05:51:35;14.10;99.90
20349;DHT22;10332;50.208;18.988;2023-05-03T05:54:03;14.20;99.90
20349;DHT22;10332;50.208;18.988;2023-05-03T05:56:31;14.20;99.90
20349;DHT22;10332;50.208;18.988;2023-05-03T05:58:58;14.10;99.90
20349;DHT22;10332;50.208;18.988;2023-05-03T06:01:27;14.10;99.90
20349;DHT22;10332;50.208;18.988;2023-05-03T06:03:54;14.10;99.90
20349;DHT22;10332;50.208;18.988;2023-05-03T06:06:22;14.10;99.90
20349;DHT22;10332;50.208;18.988;2023-05-03T06:08:50;14.10;99.90
20349;DHT22;10332;50.208;18.988;2023-05-03T06:11:17;14.10;67.60
20349;DHT22;10332;50.208;18.988;2023-05-03T06:13:44;14.10;1.00
20349;DHT22;10332;50.208;18.988;2023-05-03T06:16:12;14.10;1.00
20349;DHT22;10332;50.208;18.988;2023-05-03T06:18:39;14.10;1.00
20349;DHT22;10332;50.208;18.988;2023-05-03T06:21:07;14.00;1.00
20349;DHT22;10332;50.208;18.988;2023-05-03T06:23:36;14.00;1.00
20349;DHT22;10332;50.208;18.988;2023-05-03T06:26:05;14.00;1.00
20349;DHT22;10332;50.208;18.988;2023-05-03T06:28:34;14.10;1.00
20349;DHT22;10332;50.208;18.988;2023-05-03T06:31:02;14.00;1.00
20349;DHT22;10332;50.208;18.988;2023-05-03T06:33:29;14.10;1.00
20349;DHT22;10332;50.208;18.988;2023-05-03T06:35:57;14.00;1.00
20349;DHT22;10332;50.208;18.988;2023-05-03T06:38:25;14.10;1.00
20349;DHT22;10332;50.208;18.988;2023-05-03T06:40:52;14.10;1.00
20349;DHT22;10332;50.208;18.988;2023-05-03T06:43:20;14.10;1.00
20349;DHT22;10332;50.208;18.988;2023-05-03T06:45:50;14.20;1.00
20349;DHT22;10332;50.208;18.988;2023-05-03T06:48:21;14.20;1.00
20349;DHT22;10332;50.208;18.988;2023-05-03T06:50:48;14.30;99.90
20349;DHT22;10332;50.208;18.988;2023-05-03T06:53:16;14.30;99.90
20349;DHT22;10332;50.208;18.988;2023-05-03T06:55:44;14.40;1.00
20349;DHT22;10332;50.208;18.988;2023-05-03T06:58:12;14.50;1.00
20349;DHT22;10332;50.208;18.988;2023-05-03T07:00:39;14.50;1.00
20349;DHT22;10332;50.208;18.988;2023-05-03T07:03:07;14.60;1.00
20349;DHT22;10332;50.208;18.988;2023-05-03T07:05:34;14.70;1.00
20349;DHT22;10332;50.208;18.988;2023-05-03T07:08:03;14.70;1.00
20349;DHT22;10332;50.208;18.988;2023-05-03T07:10:31;14.70;1.00
20349;DHT22;10332;50.208;18.988;2023-05-03T07:12:58;14.70;99.90
20349;DHT22;10332;50.208;18.988;2023-05-03T07:15:25;14.80;1.00
20349;DHT22;10332;50.208;18.988;2023-05-03T07:17:53;14.80;1.00
20349;DHT22;10332;50.208;18.988;2023-05-03T07:20:20;14.80;1.00
20349;DHT22;10332;50.208;18.988;2023-05-03T07:22:48;14.80;99.90
20349;DHT22;10332;50.208;18.988;2023-05-03T07:25:15;14.80;99.90
20349;DHT22;10332;50.208;18.988;2023-05-03T07:27:43;14.70;99.90
20349;DHT22;10332;50.208;18.988;2023-05-03T07:30:11;14.70;99.90
20349;DHT22;10332;50.208;18.988;2023-05-03T07:32:39;14.70;1.00
20349;DHT22;10332;50.208;18.988;2023-05-03T07:35:07;14.80;52.80
20349;DHT22;10332;50.208;18.988;2023-05-03T07:37:35;14.80;1.00
20349;DHT22;10332;50.208;18.988;2023-05-03T07:40:05;14.80;1.00
20349;DHT22;10332;50.208;18.988;2023-05-03T07:42:33;14.80;1.00
20349;DHT22;10332;50.208;18.988;2023-05-03T07:45:01;14.90;1.00
20349;DHT22;10332;50.208;18.988;2023-05-03T07:47:29;14.90;99.90
20349;DHT22;10332;50.208;18.988;2023-05-03T07:49:57;15.00;1.00
20349;DHT22;10332;50.208;18.988;2023-05-03T07:52:25;15.10;1.00
20349;DHT22;10332;50.208;18.988;2023-05-03T07:54:52;15.20;99.90
20349;DHT22;10332;50.208;18.988;2023-05-03T07:57:20;15.30;1.00
20349;DHT22;10332;50.208;18.988;2023-05-03T07:59:49;15.40;1.00
20349;DHT22;10332;50.208;18.988;2023-05-03T08:02:17;15.60;1.00
20349;DHT22;10332;50.208;18.988;2023-05-03T08:04:44;15.70;24.10
20349;DHT22;10332;50.208;18.988;2023-05-03T08:07:13;15.70;1.00
20349;DHT22;10332;50.208;18.988;2023-05-03T08:09:40;15.80;1.00
20349;DHT22;10332;50.208;18.988;2023-05-03T08:12:08;15.90;99.90
20349;DHT22;10332;50.208;18.988;2023-05-03T08:14:36;16.00;1.00
20349;DHT22;10332;50.208;18.988;2023-05-03T08:17:03;15.90;1.00
20349;DHT22;10332;50.208;18.988;2023-05-03T08:19:31;15.90;1.00
20349;DHT22;10332;50.208;18.988;2023-05-03T08:21:58;15.90;1.00
20349;DHT22;10332;50.208;18.988;2023-05-03T08:24:26;16.00;78.30
20349;DHT22;10332;50.208;18.988;2023-05-03T08:26:54;16.00;16.10
20349;DHT22;10332;50.208;18.988;2023-05-03T08:29:21;16.10;1.00
20349;DHT22;10332;50.208;18.988;2023-05-03T08:31:50;16.00;1.00
20349;DHT22;10332;50.208;18.988;2023-05-03T08:34:18;15.90;1.00
20349;DHT22;10332;50.208;18.988;2023-05-03T08:36:46;15.80;99.90
20349;DHT22;10332;50.208;18.988;2023-05-03T08:39:13;15.80;99.90
20349;DHT22;10332;50.208;18.988;2023-05-03T08:41:41;15.70;99.90
20349;DHT22;10332;50.208;18.988;2023-05-03T08:44:20;15.60;1.00
20349;DHT22;10332;50.208;18.988;2023-05-03T08:46:49;15.60;1.00
20349;DHT22;10332;50.208;18.988;2023-05-03T08:49:17;15.60;99.90
20349;DHT22;10332;50.208;18.988;2023-05-03T08:51:45;15.70;99.90
20349;DHT22;10332;50.208;18.988;2023-05-03T08:54:15;15.70;99.90
20349;DHT22;10332;50.208;18.988;2023-05-03T08:56:44;15.70;1.00
20349;DHT22;10332;50.208;18.988;2023-05-03T08:59:13;15.70;1.00
20349;DHT22;10332;50.208;18.988;2023-05-03T09:01:43;15.80;1.00
20349;DHT22;10332;50.208;18.988;2023-05-03T09:04:11;15.90;1.00
20349;DHT22;10332;50.208;18.988;2023-05-03T09:06:39;16.00;99.90
20349;DHT22;10332;50.208;18.988;2023-05-03T09:09:07;16.20;99.90
20349;DHT22;10332;50.208;18.988;2023-05-03T09:11:37;16.20;1.00
20349;DHT22;10332;50.208;18.988;2023-05-03T09:16:41;16.10;1.00
20349;DHT22;10332;50.208;18.988;2023-05-03T09:19:14;16.10;1.00
20349;DHT22;10332;50.208;18.988;2023-05-03T09:21:43;16.10;1.00
20349;DHT22;10332;50.208;18.988;2023-05-03T09:24:19;16.10;1.00
20349;DHT22;10332;50.208;18.988;2023-05-03T09:26:49;16.10;1.00
20349;DHT22;10332;50.208;18.988;2023-05-03T09:29:31;16.10;1.00
20349;DHT22;10332;50.208;18.988;2023-05-03T09:32:04;16.20;1.00
20349;DHT22;10332;50.208;18.988;2023-05-03T09:34:34;16.20;1.00
20349;DHT22;10332;50.208;18.988;2023-05-03T09:37:03;16.30;1.00
20349;DHT22;10332;50.208;18.988;2023-05-03T09:39:31;16.30;1.00
20349;DHT22;10332;50.208;18.988;2023-05-03T09:42:08;16.30;1.00
20349;DHT22;10332;50.208;18.988;2023-05-03T09:44:47;16.30;1.00
20349;DHT22;10332;50.208;18.988;2023-05-03T09:47:17;16.30;1.00
20349;DHT22;10332;50.208;18.988;2023-05-03T09:49:46;16.40;1.00
20349;DHT22;10332;50.208;18.988;2023-05-03T09:52:14;16.40;1.00
20349;DHT22;10332;50.208;18.988;2023-05-03T09:54:41;16.40;1.00
20349;DHT22;10332;50.208;18.988;2023-05-03T09:57:09;16.40;1.00
20349;DHT22;10332;50.208;18.988;2023-05-03T09:59:44;16.50;1.00
20349;DHT22;10332;50.208;18.988;2023-05-03T10:02:12;16.60;1.00
20349;DHT22;10332;50.208;18.988;2023-05-03T10:04:44;16.60;99.90
20349;DHT22;10332;50.208;18.988;2023-05-03T10:07:17;16.60;99.90
20349;DHT22;10332;50.208;18.988;2023-05-03T10:09:49;16.60;99.90
20349;DHT22;10332;50.208;18.988;2023-05-03T10:12:17;16.70;99.90
20349;DHT22;10332;50.208;18.988;2023-05-03T10:14:47;16.80;99.90
20349;DHT22;10332;50.208;18.988;2023-05-03T10:17:21;16.80;99.90
20349;DHT22;10332;50.208;18.988;2023-05-03T10:20:26;16.80;99.90
20349;DHT22;10332;50.208;18.988;2023-05-03T10:23:30;16.90;99.90
20349;DHT22;10332;50.208;18.988;2023-05-03T10:28:38;17.00;99.90
20349;DHT22;10332;50.208;18.988;2023-05-03T10:31:45;17.00;99.90
20349;DHT22;10332;50.208;18.988;2023-05-03T10:34:24;16.80;95.20
20349;DHT22;10332;50.208;18.988;2023-05-03T10:37:00;16.60;99.90
20349;DHT22;10332;50.208;18.988;2023-05-03T10:39:30;16.50;99.90
20349;DHT22;10332;50.208;18.988;2023-05-03T10:42:02;16.50;99.90
20349;DHT22;10332;50.208;18.988;2023-05-03T10:44:38;16.50;99.90
20349;DHT22;10332;50.208;18.988;2023-05-03T10:47:21;16.50;99.90
20349;DHT22;10332;50.208;18.988;2023-05-03T10:55:14;16.60;1.00
20349;DHT22;10332;50.208;18.988;2023-05-03T10:57:48;16.60;1.00
20349;DHT22;10332;50.208;18.988;2023-05-03T11:09:30;16.60;99.90
20349;DHT22;10332;50.208;18.988;2023-05-03T11:12:03;16.50;1.00
20349;DHT22;10332;50.208;18.988;2023-05-03T11:14:34;16.40;1.00
20349;DHT22;10332;50.208;18.988;2023-05-03T11:17:03;16.30;1.00
20349;DHT22;10332;50.208;18.988;2023-05-03T11:19:31;16.30;1.00
20349;DHT22;10332;50.208;18.988;2023-05-03T11:22:00;16.20;1.00
20349;DHT22;10332;50.208;18.988;2023-05-03T11:24:28;16.20;1.00
20349;DHT22;10332;50.208;18.988;2023-05-03T11:26:55;16.20;99.90
20349;DHT22;10332;50.208;18.988;2023-05-03T11:29:24;16.20;99.90
20349;DHT22;10332;50.208;18.988;2023-05-03T11:31:52;16.20;99.90
20349;DHT22;10332;50.208;18.988;2023-05-03T11:34:19;16.40;99.90
20349;DHT22;10332;50.208;18.988;2023-05-03T11:36:47;16.40;99.90
20349;DHT22;10332;50.208;18.988;2023-05-03T11:39:15;16.50;99.90
20349;DHT22;10332;50.208;18.988;2023-05-03T11:42:00;16.40;99.90
20349;DHT22;10332;50.208;18.988;2023-05-03T11:44:31;16.50;99.90
20349;DHT22;10332;50.208;18.988;2023-05-03T11:46:59;16.60;99.90
20349;DHT22;10332;50.208;18.988;2023-05-03T11:49:28;16.50;99.90
20349;DHT22;10332;50.208;18.988;2023-05-03T11:51:55;16.60;99.90
20349;DHT22;10332;50.208;18.988;2023-05-03T11:54:23;16.70;99.90
20349;DHT22;10332;50.208;18.988;2023-05-03T11:56:57;16.80;99.90
20349;DHT22;10332;50.208;18.988;2023-05-03T11:59:38;16.80;99.90
20349;DHT22;10332;50.208;18.988;2023-05-03T12:02:08;16.80;99.90
20349;DHT22;10332;50.208;18.988;2023-05-03T12:04:38;16.90;99.90
20349;DHT22;10332;50.208;18.988;2023-05-03T12:07:09;17.00;99.90
20349;DHT22;10332;50.208;18.988;2023-05-03T12:09:40;17.00;94.70
20349;DHT22;10332;50.208;18.988;2023-05-03T12:12:20;17.20;99.90
20349;DHT22;10332;50.208;18.988;2023-05-03T12:14:59;17.40;99.90
20349;DHT22;10332;50.208;18.988;2023-05-03T12:17:38;17.60;70.50
20349;DHT22;10332;50.208;18.988;2023-05-03T12:20:21;17.70;1.00
20349;DHT22;10332;50.208;18.988;2023-05-03T12:22:54;17.70;1.00
20349;DHT22;10332;50.208;18.988;2023-05-03T12:25:26;17.70;1.00
20349;DHT22;10332;50.208;18.988;2023-05-03T12:28:02;17.60;1.00
20349;DHT22;10332;50.208;18.988;2023-05-03T12:30:33;17.50;1.00
20349;DHT22;10332;50.208;18.988;2023-05-03T12:33:01;17.30;38.20
20349;DHT22;10332;50.208;18.988;2023-05-03T12:35:31;17.10;1.00
20349;DHT22;10332;50.208;18.988;2023-05-03T12:38:00;16.90;1.00
20349;DHT22;10332;50.208;18.988;2023-05-03T12:40:36;16.80;96.30
20349;DHT22;10332;50.208;18.988;2023-05-03T12:43:05;16.70;99.90
20349;DHT22;10332;50.208;18.988;2023-05-03T12:45:33;16.60;99.90
20349;DHT22;10332;50.208;18.988;2023-05-03T12:48:01;16.50;99.90
20349;DHT22;10332;50.208;18.988;2023-05-03T12:50:29;16.50;99.90
20349;DHT22;10332;50.208;18.988;2023-05-03T12:52:59;16.50;99.90
20349;DHT22;10332;50.208;18.988;2023-05-03T12:55:29;16.60;99.90
20349;DHT22;10332;50.208;18.988;2023-05-03T12:58:07;16.80;99.90
20349;DHT22;10332;50.208;18.988;2023-05-03T13:00:38;17.10;99.90
20349;DHT22;10332;50.208;18.988;2023-05-03T13:03:25;17.40;1.00
20349;DHT22;10332;50.208;18.988;2023-05-03T13:06:00;17.70;1.00
20349;DHT22;10332;50.208;18.988;2023-05-03T13:08:40;18.00;1.00
20349;DHT22;10332;50.208;18.988;2023-05-03T13:11:16;18.20;1.00
20349;DHT22;10332;50.208;18.988;2023-05-03T13:13:45;18.20;1.00
20349;DHT22;10332;50.208;18.988;2023-05-03T13:16:13;18.20;1.00
20349;DHT22;10332;50.208;18.988;2023-05-03T13:18:40;18.20;1.00
20349;DHT22;10332;50.208;18.988;2023-05-03T13:21:09;18.20;1.00
20349;DHT22;10332;50.208;18.988;2023-05-03T13:23:38;18.30;1.00
20349;DHT22;10332;50.208;18.988;2023-05-03T13:26:05;18.40;1.00
20349;DHT22;10332;50.208;18.988;2023-05-03T13:28:33;18.60;1.00
20349;DHT22;10332;50.208;18.988;2023-05-03T13:31:00;18.60;1.00
20349;DHT22;10332;50.208;18.988;2023-05-03T13:33:27;18.70;1.00
20349;DHT22;10332;50.208;18.988;2023-05-03T13:35:55;18.90;1.00
20349;DHT22;10332;50.208;18.988;2023-05-03T13:38:23;19.10;1.00
20349;DHT22;10332;50.208;18.988;2023-05-03T13:40:50;19.00;1.00
20349;DHT22;10332;50.208;18.988;2023-05-03T13:43:18;19.00;1.00
20349;DHT22;10332;50.208;18.988;2023-05-03T13:45:46;19.00;1.00
20349;DHT22;10332;50.208;18.988;2023-05-03T13:48:13;19.10;1.00
20349;DHT22;10332;50.208;18.988;2023-05-03T13:50:45;19.10;1.00
20349;DHT22;10332;50.208;18.988;2023-05-03T13:53:12;18.90;1.00
20349;DHT22;10332;50.208;18.988;2023-05-03T13:55:40;18.90;1.00
20349;DHT22;10332;50.208;18.988;2023-05-03T13:58:07;18.90;1.00
20349;DHT22;10332;50.208;18.988;2023-05-03T14:00:35;18.80;1.00
20349;DHT22;10332;50.208;18.988;2023-05-03T14:03:02;18.70;1.00
20349;DHT22;10332;50.208;18.988;2023-05-03T14:05:30;18.60;1.00
20349;DHT22;10332;50.208;18.988;2023-05-03T14:07:57;18.40;1.00
20349;DHT22;10332;50.208;18.988;2023-05-03T14:10:25;18.30;1.00
20349;DHT22;10332;50.208;18.988;2023-05-03T14:12:53;18.20;1.00
20349;DHT22;10332;50.208;18.988;2023-05-03T14:15:20;18.20;1.00
20349;DHT22;10332;50.208;18.988;2023-05-03T14:17:48;18.30;1.00
20349;DHT22;10332;50.208;18.988;2023-05-03T14:20:15;18.30;1.00
20349;DHT22;10332;50.208;18.988;2023-05-03T14:22:44;18.30;1.00
20349;DHT22;10332;50.208;18.988;2023-05-03T14:25:12;18.30;1.00
20349;DHT22;10332;50.208;18.988;2023-05-03T14:27:39;18.50;1.00
20349;DHT22;10332;50.208;18.988;2023-05-03T14:30:07;18.50;1.00
20349;DHT22;10332;50.208;18.988;2023-05-03T14:32:36;18.60;1.00
20349;DHT22;10332;50.208;18.988;2023-05-03T14:35:04;18.50;1.00
20349;DHT22;10332;50.208;18.988;2023-05-03T14:37:32;18.50;1.00
20349;DHT22;10332;50.208;18.988;2023-05-03T14:39:59;18.60;1.00
20349;DHT22;10332;50.208;18.988;2023-05-03T14:42:31;18.60;1.00
20349;DHT22;10332;50.208;18.988;2023-05-03T14:44:59;18.60;1.00
20349;DHT22;10332;50.208;18.988;2023-05-03T14:47:28;18.50;1.00
20349;DHT22;10332;50.208;18.988;2023-05-03T14:49:56;18.60;1.00
20349;DHT22;10332;50.208;18.988;2023-05-03T14:52:23;18.70;1.00
20349;DHT22;10332;50.208;18.988;2023-05-03T14:54:51;18.60;99.90
20349;DHT22;10332;50.208;18.988;2023-05-03T14:57:19;18.70;99.90
20349;DHT22;10332;50.208;18.988;2023-05-03T14:59:47;18.70;99.90
20349;DHT22;10332;50.208;18.988;2023-05-03T15:02:15;18.70;99.90
20349;DHT22;10332;50.208;18.988;2023-05-03T15:04:42;18.70;99.90
20349;DHT22;10332;50.208;18.988;2023-05-03T15:07:10;18.60;99.90
20349;DHT22;10332;50.208;18.988;2023-05-03T15:09:37;18.60;99.90
20349;DHT22;10332;50.208;18.988;2023-05-03T15:12:05;18.60;99.90
20349;DHT22;10332;50.208;18.988;2023-05-03T15:14:34;18.60;99.90
20349;DHT22;10332;50.208;18.988;2023-05-03T15:17:01;18.60;99.90
20349;DHT22;10332;50.208;18.988;2023-05-03T15:19:29;18.60;99.90
20349;DHT22;10332;50.208;18.988;2023-05-03T15:21:57;18.50;99.90
20349;DHT22;10332;50.208;18.988;2023-05-03T15:24:25;18.50;99.90
20349;DHT22;10332;50.208;18.988;2023-05-03T15:26:52;18.40;99.90
20349;DHT22;10332;50.208;18.988;2023-05-03T15:29:19;18.20;99.90
20349;DHT22;10332;50.208;18.988;2023-05-03T15:31:47;18.00;99.90
20349;DHT22;10332;50.208;18.988;2023-05-03T15:34:15;17.90;99.90
20349;DHT22;10332;50.208;18.988;2023-05-03T15:36:42;17.90;99.90
20349;DHT22;10332;50.208;18.988;2023-05-03T15:39:09;17.80;99.90
20349;DHT22;10332;50.208;18.988;2023-05-03T15:41:38;17.80;99.90
20349;DHT22;10332;50.208;18.988;2023-05-03T15:44:06;17.80;99.90
20349;DHT22;10332;50.208;18.988;2023-05-03T15:46:36;17.70;99.90
20349;DHT22;10332;50.208;18.988;2023-05-03T15:49:06;17.70;99.90
20349;DHT22;10332;50.208;18.988;2023-05-03T15:51:33;17.70;99.90
20349;DHT22;10332;50.208;18.988;2023-05-03T15:54:01;17.60;99.90
20349;DHT22;10332;50.208;18.988;2023-05-03T15:56:28;17.60;99.90
20349;DHT22;10332;50.208;18.988;2023-05-03T15:58:56;17.50;99.90
20349;DHT22;10332;50.208;18.988;2023-05-03T16:01:23;17.50;99.90
20349;DHT22;10332;50.208;18.988;2023-05-03T16:03:51;17.40;99.90
20349;DHT22;10332;50.208;18.988;2023-05-03T16:06:18;17.40;99.90